Time;durP1;ratioP1;P1;durP2;ratioP2;P2;SDS_P1;SDS_P2;PMS_P1;PMS_P2;Temp;Humidity;BMP_temperature;BMP_pressure;BME280_temperature;BME280_humidity;BME280_pressure;Samples;Min_cycle;Max_cycle;Signal;HPM_P1;HPM_P2
2023/01/16 00:00:57;;;;;;;1.95;1.17;;;;;;;18.55;40.16;101576.03;21072608;28;20051;-59
2023/01/16 00:10:59;;;;;;;4.43;1.45;;;;;;;18.78;40.33;101623.09;21072269;28;20551;-59
2023/01/16 00:21:06;;;;;;;4.88;1.45;;;;;;;18.66;40.32;101602.88;21075267;28;20040;-59
2023/01/16 00:31:08;;;;;;;3.70;1.25;;;;;;;18.74;39.61;101618.28;21076320;28;20487;-59
2023/01/16 00:41:09;;;;;;;3.03;1.30;;;;;;;18.73;39.47;101617.44;21075783;28;20047;-58
2023/01/16 00:51:10;;;;;;;1.60;1.23;;;;;;;18.71;39.36;101608.53;21074865;28;20040;-59
2023/01/16 01:01:12;;;;;;;3.88;1.58;;;;;;;18.71;39.21;101619.63;21074432;28;20383;-58
2023/01/16 01:11:14;;;;;;;1.98;1.17;;;;;;;18.67;39.27;101623.94;21088599;28;20040;-58
2023/01/16 01:21:18;;;;;;;2.00;1.10;;;;;;;18.65;39.50;101617.81;21090688;28;20411;-60
2023/01/16 01:31:22;;;;;;;4.78;1.48;;;;;;;18.63;39.29;101591.44;21085577;28;20491;-60
2023/01/16 01:41:24;;;;;;;2.08;1.30;;;;;;;18.63;39.33;101600.59;21086737;28;20051;-59
2023/01/16 01:51:31;;;;;;;3.35;1.40;;;;;;;18.61;39.32;101588.91;21073731;28;20048;-58
2023/01/16 02:01:34;;;;;;;1.58;1.20;;;;;;;18.58;38.88;101585.78;21065614;28;20101;-59
2023/01/16 02:11:42;;;;;;;2.03;1.35;;;;;;;18.55;39.02;101587.13;21061830;28;20395;-59
2023/01/16 02:22:13;;;;;;;1.60;1.17;;;;;;;18.47;39.02;101582.00;21057802;28;20086;-59
2023/01/16 02:32:29;;;;;;;1.40;1.27;;;;;;;18.39;38.56;101560.25;21071496;28;20052;-59
2023/01/16 02:42:42;;;;;;;1.40;1.00;;;;;;;18.34;38.48;101560.16;21076518;28;20352;-59
2023/01/16 02:52:57;;;;;;;2.47;1.50;;;;;;;18.44;38.70;101599.13;21072558;28;20040;-58
2023/01/16 03:02:58;;;;;;;2.35;1.20;;;;;;;18.45;38.38;101598.03;21070686;28;20048;-58
2023/01/16 03:13:24;;;;;;;1.65;1.50;;;;;;;18.41;38.36;101605.16;21069690;28;20040;-59
2023/01/16 03:23:43;;;;;;;1.67;1.38;;;;;;;18.44;37.89;101594.41;21068061;28;20078;-58
2023/01/16 03:34:08;;;;;;;2.50;1.27;;;;;;;18.40;37.93;101604.31;21056751;28;20114;-59
2023/01/16 03:44:24;;;;;;;2.30;1.35;;;;;;;18.40;37.64;101597.94;21071536;28;20048;-60
2023/01/16 03:54:28;;;;;;;1.63;1.10;;;;;;;18.43;37.36;101606.59;21057549;28;20044;-58
2023/01/16 04:04:45;;;;;;;2.90;1.23;;;;;;;18.40;37.22;101601.53;21058954;28;20193;-60
2023/01/16 04:14:56;;;;;;;1.55;1.38;;;;;;;18.39;37.33;101604.56;21065735;28;20396;-60
2023/01/16 04:25:01;;;;;;;1.30;1.20;;;;;;;18.43;37.18;101611.31;21054059;28;20044;-59
2023/01/16 04:35:04;;;;;;;1.67;1.23;;;;;;;18.40;36.97;101607.09;21050907;28;20035;-59
2023/01/16 04:45:08;;;;;;;1.48;1.38;;;;;;;18.39;37.18;101604.56;21051736;28;20039;-60
2023/01/16 04:55:10;;;;;;;1.25;1.10;;;;;;;18.36;37.16;101591.19;21037924;28;20055;-58
2023/01/16 05:05:12;;;;;;;1.85;1.33;;;;;;;18.38;37.04;101567.72;21038658;28;20541;-59
2023/01/16 05:15:25;;;;;;;1.58;1.35;;;;;;;18.13;36.84;101520.97;21062190;28;20048;-59
2023/01/16 05:25:26;;;;;;;1.60;1.23;;;;;;;18.35;36.63;101559.88;21037354;28;20185;-59
2023/01/16 05:35:28;;;;;;;1.70;1.40;;;;;;;18.34;36.87;101562.91;21068900;28;20480;-59
2023/01/16 05:45:30;;;;;;;2.83;1.27;;;;;;;18.33;37.09;101544.63;21073095;28;20444;-59
2023/01/16 05:55:39;;;;;;;1.70;1.40;;;;;;;18.31;36.78;101547.63;21086741;28;20036;-59
2023/01/16 06:05:40;;;;;;;1.80;1.30;;;;;;;18.22;36.74;101516.69;21086325;28;20329;-61
2023/01/16 06:15:42;;;;;;;1.50;1.38;;;;;;;18.28;36.86;101532.34;21086039;28;20032;-60
2023/01/16 06:25:47;;;;;;;2.65;1.60;;;;;;;18.27;36.69;101535.34;21085150;28;20036;-58
2023/01/16 06:35:48;;;;;;;2.65;1.38;;;;;;;18.25;36.86;101526.47;21084627;28;20444;-60
2023/01/16 06:45:55;;;;;;;1.50;1.20;;;;;;;18.25;36.76;101532.84;21079455;28;20376;-59
2023/01/16 06:55:56;;;;;;;1.92;1.30;;;;;;;18.20;36.40;101546.59;21070504;28;20093;-59
2023/01/16 07:05:57;;;;;;;1.30;1.20;;;;;;;18.22;36.36;101549.09;21081843;28;20039;-60
2023/01/16 07:26:22;;;;;;;2.28;1.20;;;;;;;18.18;36.57;101551.53;21082181;28;20483;-61
2023/01/16 07:36:23;;;;;;;1.58;1.30;;;;;;;18.14;36.03;101563.34;21079459;28;20032;-59
2023/01/16 07:46:25;;;;;;;1.80;1.20;;;;;;;18.16;35.78;101564.78;21080094;28;20113;-60
2023/01/16 07:56:26;;;;;;;1.58;1.23;;;;;;;18.10;36.21;101571.34;21073387;28;20552;-61
2023/01/16 08:06:27;;;;;;;3.28;1.42;;;;;;;17.91;36.07;101547.66;21078252;28;20446;-59
2023/01/16 08:16:29;;;;;;;1.40;1.30;;;;;;;17.90;35.91;101518.28;21075921;28;20043;-59
2023/01/16 08:26:30;;;;;;;2.25;1.50;;;;;;;18.09;36.15;101543.84;21004996;28;20062;-59
2023/01/16 08:36:32;;;;;;;1.50;1.40;;;;;;;17.88;36.01;101504.72;21060266;28;20097;-59
2023/01/16 08:56:53;;;;;;;1.20;1.05;;;;;;;18.11;35.81;101525.91;21075590;28;20040;-62
2023/01/16 09:06:54;;;;;;;1.20;1.10;;;;;;;18.12;35.45;101535.91;21076874;28;20043;-59
2023/01/16 09:16:58;;;;;;;2.10;1.20;;;;;;;18.16;35.98;101562.03;21076019;28;20040;-60
2023/01/16 09:27:03;;;;;;;1.52;1.40;;;;;;;18.20;35.71;101563.22;21084912;28;20048;-60
2023/01/16 09:37:11;;;;;;;1.50;1.15;;;;;;;18.24;35.64;101563.56;21090508;28;20047;-59
2023/01/16 09:47:13;;;;;;;2.40;1.55;;;;;;;18.29;35.81;101555.34;21089745;28;20074;-60
2023/01/16 10:07:41;;;;;;;2.53;1.30;;;;;;;18.38;35.55;101539.16;21086289;28;20056;-59
2023/01/16 10:18:20;;;;;;;1.63;1.30;;;;;;;18.37;36.03;101549.41;21087560;28;20044;-59
2023/01/16 10:28:42;;;;;;;1.38;1.27;;;;;;;18.45;35.60;101553.69;21085717;28;20101;-59
2023/01/16 10:38:50;;;;;;;1.65;1.13;;;;;;;18.47;35.02;101552.38;21085205;28;20040;-60
2023/01/16 10:59:13;;;;;;;1.23;1.08;;;;;;;18.53;35.39;101533.88;21086038;28;20040;-60
2023/01/16 11:09:14;;;;;;;2.58;1.30;;;;;;;18.53;35.15;101533.88;21083518;28;20387;-60
2023/01/16 11:19:27;;;;;;;1.20;1.10;;;;;;;18.43;35.71;101522.63;21081125;28;20040;-60
2023/01/16 11:29:36;;;;;;;1.77;1.08;;;;;;;18.53;35.45;101529.19;21081960;28;20055;-60
2023/01/16 11:39:39;;;;;;;1.15;1.05;;;;;;;18.54;35.06;101535.56;21079989;28;20044;-60
2023/01/16 11:49:46;;;;;;;1.25;1.15;;;;;;;18.53;34.99;101551.34;21077116;28;20617;-60
2023/01/16 12:00:00;;;;;;;1.40;1.30;;;;;;;18.51;35.26;101527.75;21078576;28;20085;-60
2023/01/16 12:10:21;;;;;;;1.15;1.05;;;;;;;18.49;35.28;101544.63;21078176;28;20044;-60
2023/01/16 12:20:56;;;;;;;1.23;1.13;;;;;;;18.41;35.62;101528.41;21076837;28;20040;-60
2023/01/16 12:31:44;;;;;;;1.15;1.00;;;;;;;18.44;35.61;101525.13;21074401;28;20028;-60
2023/01/16 12:53:07;;;;;;;1.52;1.33;;;;;;;18.41;37.24;101514.53;21076001;28;20044;-60
2023/01/16 13:03:46;;;;;;;1.20;1.10;;;;;;;18.38;37.38;101514.22;21070721;28;20044;-59
2023/01/16 13:13:58;;;;;;;3.58;1.00;;;;;;;18.38;36.88;101503.16;21074312;28;20044;-59
2023/01/16 13:24:24;;;;;;;11.75;1.60;;;;;;;18.31;36.74;101494.13;21072348;28;20044;-59
2023/01/16 13:34:41;;;;;;;1.45;1.33;;;;;;;18.31;36.64;101496.91;21058402;28;20118;-58
2023/01/16 13:55:28;;;;;;;1.98;1.40;;;;;;;18.25;36.77;101499.59;21054686;28;20028;-59
2023/01/16 14:05:38;;;;;;;3.33;1.40;;;;;;;18.24;36.79;101520.06;21067232;28;20101;-58
2023/01/16 14:26:56;;;;;;;3.85;1.52;;;;;;;17.93;37.11;101467.97;21084432;28;20039;-59
2023/01/16 14:37:06;;;;;;;3.65;1.40;;;;;;;18.07;36.75;101465.72;21083727;28;20028;-59
2023/01/16 14:57:35;;;;;;;1.88;1.50;;;;;;;18.00;37.11;101469.47;21083570;28;20040;-60
2023/01/16 15:07:42;;;;;;;1.60;1.38;;;;;;;17.97;37.40;101447.00;21034773;28;20059;-60
2023/01/16 15:28:03;;;;;;;1.98;1.58;;;;;;;17.94;37.46;101431.72;21074996;28;20044;-60
2023/01/16 15:38:09;;;;;;;2.90;1.75;;;;;;;17.87;37.55;101410.81;21071592;28;20032;-59
2023/01/16 15:48:20;;;;;;;2.13;1.30;;;;;;;17.90;37.21;101390.94;21079377;28;20093;-60
2023/01/16 15:58:24;;;;;;;4.20;1.33;;;;;;;17.87;37.51;101375.69;21078870;28;20036;-60
2023/01/16 16:08:29;;;;;;;2.70;1.80;;;;;;;17.72;37.20;101337.44;21080162;28;20403;-60
2023/01/16 16:18:30;;;;;;;2.80;1.60;;;;;;;17.86;37.35;101329.69;21076939;28;20081;-60
2023/01/16 16:28:40;;;;;;;1.70;1.40;;;;;;;17.85;36.84;101311.41;21065412;28;20044;-60
2023/01/16 16:39:01;;;;;;;4.13;1.60;;;;;;;17.59;37.16;101253.88;21058889;28;20040;-61
2023/01/16 16:49:09;;;;;;;3.20;1.63;;;;;;;17.84;37.45;101275.66;21061604;28;20473;-61
2023/01/16 16:59:20;;;;;;;42.92;4.60;;;;;;;17.92;38.22;101262.25;21060640;28;20086;-60
2023/01/16 17:09:25;;;;;;;16.50;3.10;;;;;;;18.02;37.52;101233.88;21063850;28;20044;-61
2023/01/16 17:19:31;;;;;;;7.88;2.13;;;;;;;18.10;37.45;101216.81;21065049;28;20040;-60
2023/01/16 17:29:32;;;;;;;10.20;3.03;;;;;;;18.16;37.31;101215.78;21029267;28;20041;-60
2023/01/16 17:39:33;;;;;;;11.85;2.55;;;;;;;18.23;37.64;101176.81;21067944;28;20070;-60
2023/01/16 17:59:58;;;;;;;39.38;3.67;;;;;;;18.44;37.85;101122.50;21056065;28;20044;-60
2023/01/16 18:10:00;;;;;;;8.25;2.38;;;;;;;18.66;37.66;101100.28;21086265;28;20052;-60
2023/01/16 18:20:01;;;;;;;15.00;2.53;;;;;;;18.75;37.35;101077.41;21081477;28;20048;-61
2023/01/16 18:30:04;;;;;;;15.38;2.70;;;;;;;18.91;38.12;101075.59;21063948;28;20047;-61
2023/01/16 19:11:21;;;;;;;12.90;2.65;;;;;;;19.14;36.78;101013.38;20997292;28;20048;-61
2023/01/16 19:21:23;;;;;;;14.38;2.80;;;;;;;19.37;36.52;101041.81;20995955;28;20090;-61
2023/01/16 19:31:24;;;;;;;7.22;2.50;;;;;;;19.37;36.46;101041.81;21024499;28;20049;-61
2023/01/16 19:51:51;;;;;;;8.60;1.85;;;;;;;19.40;36.41;101032.97;21073440;28;20031;-61
2023/01/16 20:02:04;;;;;;;6.13;2.35;;;;;;;19.39;36.00;101025.75;21074588;28;20040;-61
2023/01/16 20:12:29;;;;;;;4.93;1.85;;;;;;;19.37;35.88;101005.75;21074038;28;20041;-61
2023/01/16 20:22:34;;;;;;;9.13;1.95;;;;;;;19.34;35.73;100986.88;21076597;28;20040;-60
2023/01/16 20:32:38;;;;;;;4.50;1.75;;;;;;;19.36;35.76;100970.78;21078651;28;20036;-61
2023/01/16 20:52:58;;;;;;;;;;;;;;;19.34;35.75;100989.66;21072253;28;20036;-61
2023/01/16 21:03:00;;;;;;;7.13;2.13;;;;;;;19.30;35.53;100978.25;21076341;28;19916;-61
2023/01/16 21:23:20;;;;;;;;;;;;;;;19.33;35.85;101015.72;21086692;28;20039;-61
2023/01/16 21:33:22;;;;;;;5.45;1.50;;;;;;;19.37;35.30;101033.50;21088515;28;19961;-61
2023/01/16 21:53:43;;;;;;;2.75;1.27;;;;;;;19.30;34.84;101015.16;21092267;28;20040;-62
2023/01/16 22:03:44;;;;;;;2.83;1.60;;;;;;;19.24;35.18;101002.38;21016886;28;20090;-61
2023/01/16 22:24:05;;;;;;;;;;;;;;;19.26;35.11;101030.66;21088305;28;20035;-61
2023/01/16 22:34:07;;;;;;;1.42;1.00;;;;;;;19.29;34.65;101024.59;21083464;28;19961;-61
2023/01/16 22:54:29;;;;;;;2.08;1.13;;;;;;;19.22;34.47;101032.28;21085503;28;20386;-60
2023/01/16 23:04:31;;;;;;;1.27;1.02;;;;;;;19.20;34.41;101042.84;21080807;28;20044;-60
2023/01/16 23:14:35;;;;;;;2.13;1.13;;;;;;;19.07;34.57;101004.47;21083311;28;20395;-61
2023/01/16 23:24:37;;;;;;;2.30;1.40;;;;;;;19.18;34.56;101024.78;21078786;28;20082;-60
2023/01/16 23:34:38;;;;;;;2.38;1.20;;;;;;;19.16;34.15;101005.63;21082932;28;20032;-61
2023/01/16 23:44:40;;;;;;;1.90;1.00;;;;;;;19.09;34.18;100985.59;21078160;28;20032;-60
2023/01/16 23:54:42;;;;;;;2.05;1.23;;;;;;;19.11;34.22;100997.28;21080678;28;20044;-60
